createdAt,value
2022-10-26T00:00:04.380Z,996.85
2022-10-26T00:01:04.397Z,996.87
2022-10-26T00:02:04.407Z,996.85
2022-10-26T00:03:04.374Z,996.87
2022-10-26T00:04:04.314Z,996.89
2022-10-26T00:05:04.227Z,996.82
2022-10-26T00:06:04.222Z,996.80
2022-10-26T00:07:04.193Z,996.88
2022-10-26T00:08:04.707Z,996.84
2022-10-26T00:09:04.232Z,996.78
2022-10-26T00:10:04.193Z,996.69
2022-10-26T00:11:04.164Z,996.74
2022-10-26T00:12:04.153Z,996.76
2022-10-26T00:13:04.267Z,996.81
2022-10-26T00:14:04.349Z,996.80
2022-10-26T00:15:04.227Z,996.79
2022-10-26T00:16:04.215Z,996.77
2022-10-26T00:17:04.268Z,996.83
2022-10-26T00:18:04.227Z,996.75
2022-10-26T00:19:04.278Z,996.77
2022-10-26T00:20:04.296Z,996.69
2022-10-26T00:21:04.187Z,996.78
2022-10-26T00:22:04.176Z,996.76
2022-10-26T00:23:04.232Z,996.84
2022-10-26T00:24:04.223Z,996.75
2022-10-26T00:25:04.204Z,996.84
2022-10-26T00:26:04.161Z,996.86
2022-10-26T00:27:04.136Z,996.84
2022-10-26T00:28:23.720Z,996.78
2022-10-26T00:29:04.146Z,996.75
2022-10-26T00:30:04.083Z,996.86
2022-10-26T00:31:04.049Z,996.79
2022-10-26T00:32:04.021Z,996.73
2022-10-26T00:33:04.185Z,996.81
2022-10-26T00:34:03.996Z,996.82
2022-10-26T00:35:11.851Z,996.82
2022-10-26T00:36:05.004Z,996.80
2022-10-26T00:37:04.150Z,996.80
2022-10-26T00:38:04.018Z,996.81
2022-10-26T00:39:04.035Z,996.86
2022-10-26T00:40:04.075Z,996.75
2022-10-26T00:41:04.039Z,996.81
2022-10-26T00:42:04.031Z,996.80
2022-10-26T00:43:04.049Z,996.79
2022-10-26T00:44:03.962Z,996.83
2022-10-26T00:45:04.033Z,996.81
2022-10-26T00:46:04.041Z,996.79
2022-10-26T00:47:03.939Z,996.78
2022-10-26T00:48:04.017Z,996.83
2022-10-26T00:49:03.973Z,996.78
2022-10-26T00:50:03.899Z,996.80
2022-10-26T00:51:03.968Z,996.73
2022-10-26T00:52:04.033Z,996.79
2022-10-26T00:53:03.879Z,996.79
2022-10-26T00:54:03.890Z,996.70
2022-10-26T00:55:03.872Z,996.73
2022-10-26T00:56:03.871Z,996.64
2022-10-26T00:57:03.969Z,996.71
2022-10-26T00:58:04.967Z,996.69
2022-10-26T00:59:03.921Z,996.74
2022-10-26T01:00:04.088Z,996.73
2022-10-26T01:01:03.958Z,996.78
2022-10-26T01:02:03.811Z,996.76
2022-10-26T01:03:03.973Z,996.71
2022-10-26T01:04:03.948Z,996.74
2022-10-26T01:05:03.824Z,996.66
2022-10-26T01:06:03.884Z,996.73
2022-10-26T01:07:03.963Z,996.71
2022-10-26T01:08:03.798Z,996.71
2022-10-26T01:09:03.959Z,996.61
2022-10-26T01:10:03.795Z,996.63
2022-10-26T01:11:03.767Z,996.69
2022-10-26T01:12:03.805Z,996.70
2022-10-26T01:13:03.811Z,996.71
2022-10-26T01:14:03.779Z,996.74
2022-10-26T01:15:03.724Z,996.73
2022-10-26T01:16:03.695Z,996.69
2022-10-26T01:18:04.677Z,996.63
2022-10-26T01:19:03.707Z,996.68
2022-10-26T01:20:03.706Z,996.70
2022-10-26T01:21:03.689Z,996.68
2022-10-26T01:22:03.787Z,996.65
2022-10-26T01:23:03.735Z,996.71
2022-10-26T01:24:03.767Z,996.74
2022-10-26T01:25:03.750Z,996.67
2022-10-26T01:26:03.753Z,996.64
2022-10-26T01:27:03.738Z,996.63
2022-10-26T01:28:03.726Z,996.67
2022-10-26T01:29:03.601Z,996.61
2022-10-26T01:30:03.780Z,996.56
2022-10-26T01:31:03.685Z,996.52
2022-10-26T01:32:03.601Z,996.51
2022-10-26T01:33:03.696Z,996.50
2022-10-26T01:34:03.664Z,996.46
2022-10-26T01:35:03.597Z,996.50
2022-10-26T01:36:03.668Z,996.52
2022-10-26T01:37:03.659Z,996.48
2022-10-26T01:38:03.551Z,996.53
2022-10-26T01:39:03.652Z,996.50
2022-10-26T01:40:03.712Z,996.52
2022-10-26T01:41:03.523Z,996.48
2022-10-26T01:42:03.680Z,996.49
2022-10-26T01:43:03.598Z,996.45
2022-10-26T01:44:03.519Z,996.39
2022-10-26T01:45:03.511Z,996.44
2022-10-26T01:46:03.660Z,996.39
2022-10-26T01:47:03.525Z,996.39
2022-10-26T01:48:03.593Z,996.31
2022-10-26T01:49:03.576Z,996.36
2022-10-26T01:50:03.566Z,996.31
2022-10-26T01:51:03.587Z,996.26
2022-10-26T01:52:03.526Z,996.27
2022-10-26T01:53:03.482Z,996.30
2022-10-26T01:54:03.552Z,996.30
2022-10-26T01:55:03.526Z,996.32
2022-10-26T01:56:03.446Z,996.23
2022-10-26T01:57:03.605Z,996.24
2022-10-26T01:58:03.510Z,996.38
2022-10-26T01:59:03.443Z,996.34
2022-10-26T02:00:03.514Z,996.22
2022-10-26T02:01:03.601Z,996.26
2022-10-26T02:02:03.630Z,996.23
2022-10-26T02:03:03.403Z,996.29
2022-10-26T02:04:03.524Z,996.23
2022-10-26T02:05:03.385Z,996.25
2022-10-26T02:06:03.359Z,996.21
2022-10-26T02:07:03.353Z,996.24
2022-10-26T02:08:03.419Z,996.25
2022-10-26T02:09:03.337Z,996.21
2022-10-26T02:10:03.333Z,996.17
2022-10-26T02:11:03.458Z,996.11
2022-10-26T02:12:03.335Z,996.12
2022-10-26T02:13:03.445Z,996.14
2022-10-26T02:14:03.448Z,996.07
2022-10-26T02:15:03.306Z,996.15
2022-10-26T02:16:03.402Z,996.15
2022-10-26T02:17:03.366Z,996.15
2022-10-26T02:18:03.271Z,996.14
2022-10-26T02:19:03.395Z,996.12
2022-10-26T02:20:03.357Z,996.12
2022-10-26T02:21:03.358Z,996.06
2022-10-26T02:22:03.363Z,996.07
2022-10-26T02:23:03.341Z,996.12
2022-10-26T02:24:03.357Z,996.06
2022-10-26T02:25:03.242Z,996.08
2022-10-26T02:26:03.321Z,996.08
2022-10-26T02:27:03.221Z,996.08
2022-10-26T02:28:03.229Z,995.99
2022-10-26T02:29:03.204Z,995.98
2022-10-26T02:30:03.254Z,996.07
2022-10-26T02:31:03.211Z,996.04
2022-10-26T02:32:03.182Z,995.98
2022-10-26T02:33:03.171Z,995.99
2022-10-26T02:34:03.294Z,995.95
2022-10-26T02:35:03.296Z,995.92
2022-10-26T02:36:03.180Z,995.90
2022-10-26T02:37:03.265Z,995.87
2022-10-26T02:38:03.229Z,995.99
2022-10-26T02:39:03.134Z,995.99
2022-10-26T02:40:03.231Z,995.93
2022-10-26T02:41:03.262Z,995.92
2022-10-26T02:42:03.095Z,995.88
2022-10-26T02:43:03.195Z,995.96
2022-10-26T02:44:03.223Z,995.91
2022-10-26T02:45:03.084Z,996.00
2022-10-26T02:46:03.223Z,995.95
2022-10-26T02:47:03.190Z,995.97
2022-10-26T02:48:03.083Z,996.00
2022-10-26T02:49:03.205Z,995.95
2022-10-26T02:50:03.062Z,995.97
2022-10-26T02:51:03.053Z,995.93
2022-10-26T02:52:03.116Z,995.93
2022-10-26T02:53:03.216Z,995.92
2022-10-26T02:54:03.173Z,995.95
2022-10-26T02:55:03.092Z,995.95
2022-10-26T02:56:03.084Z,995.89
2022-10-26T02:57:03.044Z,995.81
2022-10-26T02:58:03.097Z,995.86
2022-10-26T02:59:03.006Z,995.90
2022-10-26T03:00:03.041Z,995.90
2022-10-26T03:01:03.269Z,995.94
2022-10-26T03:02:03.100Z,995.95
2022-10-26T03:03:03.064Z,995.88
2022-10-26T03:04:03.098Z,995.89
2022-10-26T03:05:03.022Z,995.90
2022-10-26T03:06:02.937Z,995.92
2022-10-26T03:07:03.010Z,995.87
2022-10-26T03:08:03.324Z,995.89
2022-10-26T03:09:03.975Z,995.90
2022-10-26T03:10:02.980Z,995.90
2022-10-26T03:11:02.913Z,995.85
2022-10-26T03:12:02.888Z,995.85
2022-10-26T03:13:02.934Z,995.83
2022-10-26T03:14:03.000Z,995.84
2022-10-26T03:15:02.852Z,995.89
2022-10-26T03:16:02.856Z,995.78
2022-10-26T03:17:02.878Z,995.72
2022-10-26T03:18:02.859Z,995.84
2022-10-26T03:19:02.848Z,995.82
2022-10-26T03:20:02.875Z,995.95
2022-10-26T03:21:02.817Z,995.80
2022-10-26T06:13:02.398Z,996.36
2022-10-26T06:14:02.250Z,996.30
2022-10-26T06:15:03.421Z,996.32
2022-10-26T06:16:03.296Z,996.29
2022-10-26T06:17:03.305Z,996.27
2022-10-26T06:18:03.333Z,996.24
2022-10-26T06:19:03.322Z,996.32
2022-10-26T06:20:03.424Z,996.27
2022-10-26T06:21:03.309Z,996.25
2022-10-26T06:22:03.377Z,996.30
2022-10-26T06:23:03.415Z,996.32
2022-10-26T06:24:03.336Z,996.36
2022-10-26T06:25:03.347Z,996.29
2022-10-26T06:26:03.326Z,996.36
2022-10-26T06:27:03.336Z,996.34
2022-10-26T06:28:03.341Z,996.40
2022-10-26T06:29:03.343Z,996.38
2022-10-26T06:30:03.369Z,996.39
2022-10-26T06:31:03.327Z,996.40
2022-10-26T06:32:03.365Z,996.44
2022-10-26T06:33:06.338Z,996.38
2022-10-26T06:34:05.366Z,996.37
2022-10-26T06:35:07.026Z,996.35
2022-10-26T06:36:04.185Z,996.31
2022-10-26T06:37:03.151Z,996.33
2022-10-26T06:38:03.272Z,996.32
2022-10-26T06:39:03.273Z,996.31
2022-10-26T06:40:03.215Z,996.34
2022-10-26T06:41:03.227Z,996.35
2022-10-26T06:42:03.231Z,996.31
2022-10-26T06:43:03.250Z,996.42
2022-10-26T06:44:03.231Z,996.31
2022-10-26T06:45:03.350Z,996.38
2022-10-26T06:46:03.188Z,996.34
2022-10-26T06:47:03.210Z,996.38
2022-10-26T06:48:03.190Z,996.40
2022-10-26T06:49:03.201Z,996.36
2022-10-26T06:50:03.182Z,996.44
2022-10-26T06:51:03.187Z,996.42
2022-10-26T06:52:03.152Z,996.40
2022-10-26T06:53:03.164Z,996.35
2022-10-26T06:54:03.060Z,996.33
2022-10-26T06:55:03.074Z,996.39
2022-10-26T06:56:03.063Z,996.36
2022-10-26T06:57:03.048Z,996.32
2022-10-26T06:58:03.019Z,996.33
2022-10-26T06:59:04.889Z,996.36
2022-10-26T07:00:02.998Z,996.33
2022-10-26T07:01:03.097Z,996.29
2022-10-26T07:02:05.774Z,996.36
2022-10-26T07:03:03.042Z,996.35
2022-10-26T07:04:03.102Z,996.34
2022-10-26T07:05:03.046Z,996.36
2022-10-26T07:06:03.114Z,996.36
2022-10-26T07:07:03.144Z,996.27
2022-10-26T07:08:03.050Z,996.29
2022-10-26T07:09:03.031Z,996.26
2022-10-26T07:10:03.033Z,996.31
2022-10-26T07:11:03.030Z,996.32
2022-10-26T07:12:03.069Z,996.24
2022-10-26T07:13:03.019Z,996.36
2022-10-26T07:14:02.978Z,996.39
2022-10-26T07:15:03.085Z,996.32
2022-10-26T07:16:03.022Z,996.38
2022-10-26T07:17:03.136Z,996.42
2022-10-26T07:18:03.119Z,996.42
2022-10-26T07:19:02.887Z,996.41
2022-10-26T07:20:02.908Z,996.38
2022-10-26T07:21:02.885Z,996.39
2022-10-26T07:22:02.878Z,996.40
2022-10-26T07:23:02.977Z,996.36
2022-10-26T07:24:02.855Z,996.40
2022-10-26T07:25:03.371Z,996.48
2022-10-26T07:26:02.859Z,996.38
2022-10-26T07:27:02.846Z,996.35
2022-10-26T07:28:02.863Z,996.43
2022-10-26T07:29:02.814Z,996.47
2022-10-26T07:30:03.916Z,996.40
2022-10-26T07:31:02.880Z,996.41
2022-10-26T07:32:02.907Z,996.37
2022-10-26T07:33:02.919Z,996.34
2022-10-26T07:34:02.925Z,996.40
2022-10-26T07:35:02.861Z,996.37
2022-10-26T07:36:02.905Z,996.37
2022-10-26T07:37:02.851Z,996.29
2022-10-26T07:38:02.866Z,996.27
2022-10-26T07:39:02.942Z,996.35
2022-10-26T07:40:06.436Z,996.41
2022-10-26T07:41:03.847Z,996.45
2022-10-26T07:42:02.833Z,996.45
2022-10-26T07:43:02.876Z,996.44
2022-10-26T07:44:02.897Z,996.42
2022-10-26T07:45:03.339Z,996.44
2022-10-26T07:46:02.858Z,996.39
2022-10-26T07:47:02.776Z,996.45
2022-10-26T07:48:02.728Z,996.49
2022-10-26T07:49:02.687Z,996.41
2022-10-26T07:50:02.709Z,996.41
2022-10-26T07:51:03.255Z,996.36
2022-10-26T07:52:03.642Z,996.40
2022-10-26T07:53:02.628Z,996.43
2022-10-26T07:54:02.746Z,996.45
2022-10-26T07:55:02.766Z,996.40
2022-10-26T07:56:02.654Z,996.43
2022-10-26T07:57:02.780Z,996.47
2022-10-26T07:58:02.733Z,996.53
2022-10-26T07:59:02.600Z,996.56
2022-10-26T08:00:02.725Z,996.55
2022-10-26T08:01:02.821Z,996.55
2022-10-26T08:02:02.627Z,996.54
2022-10-26T08:03:02.624Z,996.58
2022-10-26T08:04:02.747Z,996.57
2022-10-26T08:05:02.575Z,996.57
2022-10-26T08:06:02.805Z,996.53
2022-10-26T08:07:02.644Z,996.53
2022-10-26T08:08:02.636Z,996.61
2022-10-26T08:09:02.659Z,996.59
2022-10-26T08:10:02.641Z,996.66
2022-10-26T08:11:02.629Z,996.66
2022-10-26T08:12:02.645Z,996.67
2022-10-26T08:13:02.626Z,996.69
2022-10-26T08:14:02.642Z,996.67
2022-10-26T08:15:02.618Z,996.77
2022-10-26T08:16:02.672Z,996.70
2022-10-26T08:17:02.985Z,996.70
2022-10-26T08:18:02.564Z,996.71
2022-10-26T08:19:02.580Z,996.68
2022-10-26T08:20:02.609Z,996.69
2022-10-26T08:21:10.680Z,996.63
2022-10-26T08:22:03.796Z,996.59
2022-10-26T08:23:02.439Z,996.60
2022-10-26T08:24:02.435Z,996.63
2022-10-26T08:25:02.457Z,996.67
2022-10-26T08:26:02.514Z,996.61
2022-10-26T08:27:02.417Z,996.65
2022-10-26T08:28:02.633Z,996.66
2022-10-26T08:29:02.471Z,996.68
2022-10-26T08:30:02.470Z,996.69
2022-10-26T08:31:02.431Z,996.73
2022-10-26T08:32:02.431Z,996.75
2022-10-26T08:33:02.581Z,996.79
2022-10-26T08:34:02.613Z,996.79
2022-10-26T08:35:02.579Z,996.78
2022-10-26T08:36:02.656Z,996.81
2022-10-26T08:37:02.566Z,996.79
2022-10-26T08:38:02.489Z,996.82
2022-10-26T08:39:02.612Z,996.82
2022-10-26T08:40:03.454Z,996.88
2022-10-26T08:41:02.477Z,996.85
2022-10-26T08:42:02.441Z,996.85
2022-10-26T08:43:03.460Z,996.83
2022-10-26T08:44:02.520Z,996.85
2022-10-26T08:45:02.410Z,996.80
2022-10-26T08:46:02.524Z,996.83
2022-10-26T08:47:02.478Z,996.75
2022-10-26T08:48:02.413Z,996.81
2022-10-26T08:49:02.633Z,996.78
2022-10-26T08:50:02.386Z,996.79
2022-10-26T08:51:03.277Z,996.75
2022-10-26T08:52:02.331Z,996.82
2022-10-26T08:53:02.305Z,996.78
2022-10-26T08:54:02.277Z,996.82
2022-10-26T08:55:02.387Z,996.77
2022-10-26T08:56:02.391Z,996.72
2022-10-26T08:57:02.284Z,996.67
2022-10-26T08:58:02.267Z,996.64
2022-10-26T08:59:02.308Z,996.63
2022-10-26T09:00:02.306Z,996.62
2022-10-26T09:01:02.262Z,996.59
2022-10-26T09:02:02.378Z,996.64
2022-10-26T09:03:02.300Z,996.62
2022-10-26T09:05:03.482Z,996.62
2022-10-26T09:06:02.352Z,996.68
2022-10-26T09:07:03.298Z,996.64
2022-10-26T09:08:02.317Z,996.65
2022-10-26T09:09:06.156Z,996.72
2022-10-26T09:10:02.279Z,996.67
2022-10-26T09:11:02.301Z,996.72
2022-10-26T09:12:02.206Z,996.64
2022-10-26T09:13:02.190Z,996.72
2022-10-26T09:14:02.321Z,996.71
2022-10-26T09:15:02.179Z,996.76
2022-10-26T09:16:02.391Z,996.75
2022-10-26T09:17:02.211Z,996.80
2022-10-26T09:18:02.303Z,996.72
2022-10-26T09:19:03.037Z,996.75
2022-10-26T09:20:02.509Z,996.72
2022-10-26T09:21:02.242Z,996.68
2022-10-26T09:22:02.280Z,996.64
2022-10-26T09:23:02.289Z,996.73
2022-10-26T09:24:02.530Z,996.77
2022-10-26T09:25:05.420Z,996.74
2022-10-26T09:26:04.064Z,996.70
2022-10-26T09:27:02.111Z,996.69
2022-10-26T09:28:02.118Z,996.73
2022-10-26T09:29:02.087Z,996.76
2022-10-26T09:30:02.007Z,996.69
2022-10-26T09:31:02.107Z,996.72
2022-10-26T09:32:02.166Z,996.74
2022-10-26T09:33:02.208Z,996.82
2022-10-26T09:34:02.162Z,996.80
2022-10-26T09:35:02.088Z,996.83
2022-10-26T09:36:02.355Z,996.79
2022-10-26T09:37:02.232Z,996.76
2022-10-26T09:38:02.264Z,996.81
2022-10-26T09:39:02.150Z,996.85
2022-10-26T09:40:02.051Z,996.84
2022-10-26T09:41:02.125Z,996.86
2022-10-26T09:42:02.137Z,996.86
2022-10-26T09:43:01.997Z,996.83
2022-10-26T09:44:01.935Z,996.85
2022-10-26T09:45:01.910Z,996.89
2022-10-26T09:46:04.451Z,996.87
2022-10-26T09:47:01.944Z,996.83
2022-10-26T09:48:05.171Z,996.87
2022-10-26T09:50:01.978Z,996.83
2022-10-26T09:51:04.576Z,996.84
2022-10-26T09:52:03.035Z,996.94
2022-10-26T09:53:02.084Z,996.88
2022-10-26T09:54:01.983Z,996.86
2022-10-26T09:55:01.940Z,996.91
2022-10-26T09:56:01.955Z,996.92
2022-10-26T09:57:01.912Z,996.87
2022-10-26T09:58:02.027Z,996.90
2022-10-26T09:59:01.861Z,996.81
2022-10-26T10:00:01.950Z,996.87
2022-10-26T10:01:01.871Z,996.89
2022-10-26T10:02:02.018Z,996.88
2022-10-26T10:03:01.998Z,997.02
2022-10-26T10:04:01.995Z,997.01
2022-10-26T10:05:01.884Z,996.99
2022-10-26T10:06:01.952Z,997.01
2022-10-26T10:07:01.859Z,997.01
2022-10-26T10:08:01.920Z,996.94
2022-10-26T10:09:01.845Z,996.89
2022-10-26T10:10:01.838Z,996.90
2022-10-26T10:11:01.736Z,996.77
2022-10-26T10:12:01.681Z,996.80
2022-10-26T10:13:01.714Z,996.72
2022-10-26T10:14:01.806Z,996.67
2022-10-26T10:15:01.776Z,996.65
2022-10-26T10:16:01.702Z,996.62
2022-10-26T10:17:01.700Z,996.58
2022-10-26T10:18:01.737Z,996.61
2022-10-26T10:19:01.756Z,996.59
2022-10-26T10:20:01.780Z,996.64
2022-10-26T10:21:02.805Z,996.63
2022-10-26T10:22:01.764Z,996.60
2022-10-26T10:23:01.806Z,996.66
2022-10-26T10:24:01.828Z,996.70
2022-10-26T10:25:01.759Z,996.72
2022-10-26T10:26:02.128Z,996.80
2022-10-26T10:27:01.772Z,996.76
2022-10-26T10:28:01.759Z,996.87
2022-10-26T10:29:01.793Z,996.89
2022-10-26T10:30:04.247Z,996.98
2022-10-26T10:31:01.724Z,997.07
2022-10-26T10:32:01.817Z,997.09
2022-10-26T10:33:01.667Z,997.07
2022-10-26T10:34:01.669Z,997.04
2022-10-26T10:35:01.751Z,997.07
2022-10-26T10:36:01.684Z,997.10
2022-10-26T10:37:01.765Z,997.06
2022-10-26T10:38:01.616Z,997.03
2022-10-26T10:39:01.667Z,997.00
2022-10-26T10:40:01.536Z,996.99
2022-10-26T10:41:01.652Z,996.97
2022-10-26T10:42:01.598Z,997.01
2022-10-26T10:43:01.647Z,996.97
2022-10-26T10:44:01.515Z,997.02
2022-10-26T10:45:01.722Z,997.02
2022-10-26T10:46:01.720Z,997.06
2022-10-26T10:47:01.586Z,996.99
2022-10-26T10:48:01.708Z,997.03
2022-10-26T10:49:01.559Z,996.97
2022-10-26T10:50:01.650Z,997.02
2022-10-26T10:51:01.534Z,997.02
2022-10-26T10:52:01.598Z,997.00
2022-10-26T10:53:01.693Z,997.05
2022-10-26T10:54:01.950Z,997.00
2022-10-26T10:55:01.518Z,997.00
2022-10-26T10:56:01.540Z,997.07
2022-10-26T10:57:01.527Z,997.11
2022-10-26T10:58:01.635Z,997.11
2022-10-26T10:59:01.434Z,997.03
2022-10-26T11:00:01.551Z,997.02
2022-10-26T11:01:01.413Z,997.06
2022-10-26T11:02:01.712Z,997.08
2022-10-26T11:03:01.340Z,997.14
2022-10-26T11:04:01.407Z,997.16
2022-10-26T11:05:01.410Z,997.15
2022-10-26T11:06:01.641Z,997.18
2022-10-26T11:07:01.453Z,997.12
2022-10-26T11:08:01.440Z,997.18
2022-10-26T11:09:01.479Z,997.11
2022-10-26T11:10:01.440Z,997.14
2022-10-26T11:11:01.562Z,997.02
2022-10-26T11:12:01.495Z,996.99
2022-10-26T11:13:01.500Z,996.95
2022-10-26T11:14:01.385Z,996.92
2022-10-26T11:15:01.382Z,996.96
2022-10-26T11:16:01.558Z,996.93
2022-10-26T11:17:01.310Z,996.99
2022-10-26T11:18:02.345Z,997.07
2022-10-26T11:19:01.349Z,997.01
2022-10-26T11:20:01.364Z,997.06
2022-10-26T11:21:01.353Z,997.12
2022-10-26T11:22:01.307Z,997.09
2022-10-26T11:23:01.679Z,997.07
2022-10-26T11:24:01.405Z,997.03
2022-10-26T11:25:01.329Z,996.97
2022-10-26T11:26:01.358Z,997.03
2022-10-26T11:27:01.272Z,996.99
2022-10-26T11:28:01.233Z,996.97
2022-10-26T11:29:01.153Z,996.93
2022-10-26T11:30:01.134Z,997.00
2022-10-26T11:31:01.192Z,997.01
2022-10-26T11:32:01.258Z,996.99
2022-10-26T11:33:01.191Z,996.92
2022-10-26T11:34:01.229Z,996.90
2022-10-26T11:35:01.298Z,996.87
2022-10-26T11:36:01.183Z,996.90
2022-10-26T11:37:01.271Z,996.95
2022-10-26T11:38:01.556Z,996.92
2022-10-26T11:39:04.018Z,997.00
2022-10-26T11:40:03.156Z,996.97
2022-10-26T11:41:01.229Z,996.98
2022-10-26T11:42:01.514Z,996.96
2022-10-26T11:43:01.237Z,996.94
2022-10-26T11:44:01.199Z,996.94
2022-10-26T11:45:01.171Z,996.76
2022-10-26T11:46:01.171Z,996.85
2022-10-26T11:47:01.172Z,996.82
2022-10-26T11:48:01.170Z,996.84
2022-10-26T11:49:01.195Z,996.91
2022-10-26T11:50:01.156Z,996.98
2022-10-26T11:51:01.142Z,997.01
2022-10-26T11:52:01.095Z,997.02
2022-10-26T11:53:00.994Z,997.04
2022-10-26T11:54:01.065Z,996.97
2022-10-26T11:55:01.064Z,996.99
2022-10-26T11:56:00.988Z,997.02
2022-10-26T11:57:01.193Z,996.97
2022-10-26T11:58:01.100Z,996.87
2022-10-26T12:00:01.136Z,996.89
2022-10-26T12:01:01.072Z,996.87
2022-10-26T12:02:01.058Z,996.93
2022-10-26T12:03:01.113Z,996.94
2022-10-26T12:04:01.215Z,996.98
2022-10-26T12:05:01.055Z,996.98
2022-10-26T12:06:01.075Z,997.01
2022-10-26T12:07:00.999Z,997.03
2022-10-26T12:08:01.010Z,997.05
2022-10-26T12:09:01.072Z,997.03
2022-10-26T12:10:01.012Z,997.01
2022-10-26T12:11:01.100Z,997.07
2022-10-26T12:12:01.087Z,997.02
2022-10-26T12:13:01.037Z,997.10
2022-10-26T12:14:01.017Z,997.10
2022-10-26T12:15:00.935Z,997.09
2022-10-26T12:16:03.935Z,997.00
2022-10-26T12:17:01.845Z,997.10
2022-10-26T12:18:00.836Z,997.06
2022-10-26T12:19:00.837Z,997.02
2022-10-26T12:20:00.846Z,997.08
2022-10-26T12:21:00.848Z,997.03
2022-10-26T12:22:00.848Z,997.00
2022-10-26T12:23:00.824Z,997.00
2022-10-26T12:24:00.813Z,996.97
2022-10-26T12:25:00.855Z,997.02
2022-10-26T12:26:00.871Z,997.04
2022-10-26T12:27:01.292Z,997.03
2022-10-26T12:28:00.875Z,997.07
2022-10-26T12:29:00.880Z,997.02
2022-10-26T12:30:00.875Z,997.05
2022-10-26T12:31:00.847Z,997.07
2022-10-26T12:32:00.914Z,997.07
2022-10-26T12:33:00.896Z,997.05
2022-10-26T12:34:00.846Z,997.04
2022-10-26T12:35:00.836Z,997.08
2022-10-26T12:36:00.879Z,997.15
2022-10-26T12:37:00.821Z,997.21
2022-10-26T12:38:00.851Z,997.24
2022-10-26T12:39:00.888Z,997.36
2022-10-26T12:40:00.815Z,997.31
2022-10-26T12:41:00.719Z,997.41
2022-10-26T12:42:00.943Z,997.39
2022-10-26T12:43:00.715Z,997.37
2022-10-26T12:44:02.726Z,997.39
2022-10-26T12:45:00.605Z,997.43
2022-10-26T12:46:00.589Z,997.42
2022-10-26T12:47:00.620Z,997.38
2022-10-26T12:48:07.016Z,997.44
2022-10-26T12:49:02.582Z,997.36
2022-10-26T12:50:00.545Z,997.33
2022-10-26T12:51:00.653Z,997.39
2022-10-26T12:53:00.652Z,997.42
2022-10-26T12:54:00.741Z,997.41
2022-10-26T12:55:00.700Z,997.45
2022-10-26T12:56:00.628Z,997.51
2022-10-26T12:57:00.641Z,997.56
2022-10-26T12:58:00.496Z,997.61
2022-10-26T12:59:04.470Z,997.52
2022-10-26T13:00:01.667Z,997.48
2022-10-26T13:01:00.639Z,997.45
2022-10-26T13:02:00.591Z,997.45
2022-10-26T13:03:00.581Z,997.42
2022-10-26T13:04:00.577Z,997.38
2022-10-26T13:05:00.657Z,997.44
2022-10-26T13:06:00.565Z,997.47
2022-10-26T13:07:00.548Z,997.46
2022-10-26T13:08:00.527Z,997.46
2022-10-26T13:09:00.825Z,997.47
2022-10-26T13:10:00.555Z,997.52
2022-10-26T13:11:00.585Z,997.49
2022-10-26T13:12:00.523Z,997.45
2022-10-26T13:13:00.493Z,997.44
2022-10-26T13:14:00.504Z,997.47
2022-10-26T13:15:00.489Z,997.47
2022-10-26T13:16:00.435Z,997.41
2022-10-26T13:17:00.595Z,997.44
2022-10-26T13:18:00.477Z,997.46
2022-10-26T13:19:00.447Z,997.48
2022-10-26T13:20:00.355Z,997.39
2022-10-26T13:21:00.378Z,997.46
2022-10-26T13:22:00.428Z,997.45
2022-10-26T13:24:00.333Z,997.51
2022-10-26T13:25:00.320Z,997.55
2022-10-26T13:26:00.305Z,997.50
2022-10-26T13:27:00.436Z,997.49
2022-10-26T13:28:01.451Z,997.41
2022-10-26T13:29:00.312Z,997.47
2022-10-26T13:30:00.275Z,997.49
2022-10-26T13:31:00.379Z,997.52
2022-10-26T13:32:00.378Z,997.54
2022-10-26T13:33:00.629Z,997.49
2022-10-26T13:34:00.319Z,997.46
2022-10-26T13:35:00.359Z,997.45
2022-10-26T13:36:00.318Z,997.47
2022-10-26T13:37:01.349Z,997.43
2022-10-26T13:38:00.332Z,997.43
2022-10-26T13:39:00.306Z,997.47
2022-10-26T13:40:00.419Z,997.40
2022-10-26T13:41:00.333Z,997.45
2022-10-26T13:42:00.332Z,997.44
2022-10-26T13:43:00.389Z,997.49
2022-10-26T13:44:00.319Z,997.46
2022-10-26T13:45:00.426Z,997.49
2022-10-26T13:46:00.355Z,997.59
2022-10-26T13:47:00.334Z,997.54
2022-10-26T13:48:00.733Z,997.47
2022-10-26T13:49:00.291Z,997.49
2022-10-26T13:50:00.384Z,997.45
2022-10-26T13:51:00.254Z,997.51
2022-10-26T13:52:00.579Z,997.48
2022-10-26T13:53:00.292Z,997.49
2022-10-26T13:54:00.523Z,997.49
2022-10-26T13:55:00.451Z,997.40
2022-10-26T13:56:00.333Z,997.43
2022-10-26T13:57:00.139Z,997.50
2022-10-26T13:58:00.197Z,997.46
2022-10-26T13:59:00.169Z,997.46
2022-10-26T14:00:03.900Z,997.46
2022-10-26T14:01:01.155Z,997.38
2022-10-26T14:02:00.105Z,997.47
2022-10-26T14:03:00.132Z,997.50
2022-10-26T14:04:00.201Z,997.52
2022-10-26T14:05:00.253Z,997.54
2022-10-26T14:06:00.181Z,997.46
2022-10-26T14:07:00.209Z,997.50
2022-10-26T14:08:00.248Z,997.49
2022-10-26T14:09:00.151Z,997.49
2022-10-26T14:10:00.133Z,997.51
2022-10-26T14:11:00.135Z,997.49
2022-10-26T14:12:00.044Z,997.43
2022-10-26T14:13:00.118Z,997.52
2022-10-26T14:14:00.060Z,997.45
2022-10-26T14:15:00.072Z,997.53
2022-10-26T14:16:00.151Z,997.57
2022-10-26T14:17:00.027Z,997.54
2022-10-26T14:18:00.062Z,997.55
2022-10-26T14:19:00.021Z,997.50
2022-10-26T14:19:59.945Z,997.53
2022-10-26T14:20:59.953Z,997.50
2022-10-26T14:21:59.998Z,997.55
2022-10-26T14:22:59.923Z,997.57
2022-10-26T14:23:59.903Z,997.54
2022-10-26T14:24:59.916Z,997.58
2022-10-26T14:25:59.927Z,997.56
2022-10-26T14:26:59.895Z,997.58
2022-10-26T14:27:59.863Z,997.65
2022-10-26T14:28:59.931Z,997.65
2022-10-26T14:30:24.241Z,997.64
2022-10-26T14:31:02.044Z,997.60
2022-10-26T14:31:59.840Z,997.63
2022-10-26T14:32:59.919Z,997.64
2022-10-26T14:33:59.913Z,997.65
2022-10-26T14:34:59.901Z,997.66
2022-10-26T14:35:59.977Z,997.63
2022-10-26T14:37:00.109Z,997.63
2022-10-26T14:37:59.912Z,997.64
2022-10-26T14:38:59.879Z,997.68
2022-10-26T14:39:59.887Z,997.70
2022-10-26T14:40:59.992Z,997.70
2022-10-26T14:42:00.226Z,997.65
2022-10-26T14:42:59.884Z,997.69
2022-10-26T14:43:59.874Z,997.73
2022-10-26T14:44:59.843Z,997.73
2022-10-26T14:46:00.243Z,997.74
2022-10-26T14:46:59.803Z,997.74
2022-10-26T14:48:00.104Z,997.72
2022-10-26T14:48:59.938Z,997.79
2022-10-26T14:50:59.781Z,997.78
2022-10-26T14:51:59.724Z,997.79
2022-10-26T14:52:59.888Z,997.79
2022-10-26T14:54:00.097Z,997.83
2022-10-26T14:55:00.000Z,997.85
2022-10-26T14:55:59.897Z,997.87
2022-10-26T14:56:59.756Z,997.75
2022-10-26T14:57:59.882Z,997.80
2022-10-26T14:59:00.090Z,997.91
2022-10-26T14:59:59.948Z,997.89
2022-10-26T15:00:59.900Z,997.97
2022-10-26T15:01:59.951Z,997.86
2022-10-26T15:02:59.714Z,997.87
2022-10-26T15:03:59.732Z,997.89
2022-10-26T15:04:59.921Z,997.92
2022-10-26T15:05:59.710Z,998.00
2022-10-26T15:06:59.623Z,997.99
2022-10-26T15:07:59.589Z,998.05
2022-10-26T15:09:00.045Z,998.04
2022-10-26T15:09:59.770Z,998.03
2022-10-26T15:11:00.106Z,998.03
2022-10-26T15:11:59.636Z,998.16
2022-10-26T15:12:59.747Z,998.12
2022-10-26T15:13:59.661Z,998.10
2022-10-26T15:15:02.933Z,998.11
2022-10-26T15:16:00.700Z,998.14
2022-10-26T15:16:59.683Z,998.20
2022-10-26T15:17:59.633Z,998.16
2022-10-26T15:18:59.575Z,998.09
2022-10-26T15:19:59.633Z,998.10
2022-10-26T15:20:59.634Z,998.20
2022-10-26T15:21:59.526Z,998.16
2022-10-26T15:22:59.532Z,998.23
2022-10-26T15:23:59.472Z,998.20
2022-10-26T15:24:59.514Z,998.29
2022-10-26T15:25:59.676Z,998.23